Atwood, Tennessee
Current Conditions -  °F | °C
As of 10:53 AM on Thursday 30 Oct 2014 (Local Time) from KMKL Reporting Station
Clear Clear  
Wind Chill: 58°   Ceiling: Unl
Heat Index: 58°   Visibility: 10mi
Dew Point: 39°   Wind: 3mph
Humidity: 49%   Direction: NA
Pressure: 30.17"   Gusts: NA
Location:  35.97°N, 88.68°W
Report Text: KMKL 301553Z VRB03KT 10SM CLR 14/04 A3017 RMK AO2 SLP216 T01440039
Loading
Personal Weather Stations






























Interactive Weather Map New forecast layout! Learn more

10-Day Weather Forecast

Advertisements
Track Severe Weather on mobile